sensor_id;sensor_type;location;lat;lon;timestamp;pressure;altitude;pressure_sealevel;temperature;humidity
62152;BME280;48139;47.474;19.034;2024-01-25T04:41:04;100684.81;;;9.19;77.43
62152;BME280;48139;47.474;19.034;2024-01-25T04:44:10;100684.81;;;9.19;77.43
62152;BME280;48139;47.474;19.034;2024-01-25T04:47:13;100680.22;;;8.77;78.53
62152;BME280;48139;47.474;19.034;2024-01-25T04:50:16;100693.88;;;8.85;78.60
62152;BME280;48139;47.474;19.034;2024-01-25T04:53:19;100688.44;;;8.92;78.34
62152;BME280;48139;47.474;19.034;2024-01-25T04:56:22;100682.34;;;8.91;78.19
62152;BME280;48139;47.474;19.034;2024-01-25T04:59:25;100702.63;;;8.84;80.36
62152;BME280;48139;47.474;19.034;2024-01-25T05:02:31;100703.62;;;8.80;80.24
62152;BME280;48139;47.474;19.034;2024-01-25T05:05:33;100676.53;;;8.83;80.94
62152;BME280;48139;47.474;19.034;2024-01-25T05:08:36;100667.81;;;8.84;81.13
62152;BME280;48139;47.474;19.034;2024-01-25T05:11:39;100677.44;;;8.82;81.04
62152;BME280;48139;47.474;19.034;2024-01-25T05:14:43;100654.69;;;8.85;79.71
62152;BME280;48139;47.474;19.034;2024-01-25T05:17:46;100672.06;;;8.86;78.41
62152;BME280;48139;47.474;19.034;2024-01-25T05:20:49;100695.00;;;8.78;79.51
62152;BME280;48139;47.474;19.034;2024-01-25T05:23:51;100640.78;;;8.85;79.00
62152;BME280;48139;47.474;19.034;2024-01-25T05:26:54;100664.06;;;8.91;77.86
62152;BME280;48139;47.474;19.034;2024-01-25T05:29:58;100604.62;;;8.98;76.33
62152;BME280;48139;47.474;19.034;2024-01-25T05:33:04;100661.75;;;9.07;76.14
62152;BME280;48139;47.474;19.034;2024-01-25T05:36:07;100667.87;;;9.06;75.77
62152;BME280;48139;47.474;19.034;2024-01-25T05:39:10;100679.78;;;9.14;75.51
62152;BME280;48139;47.474;19.034;2024-01-25T05:42:15;100669.31;;;9.14;76.75
62152;BME280;48139;47.474;19.034;2024-01-25T05:45:18;100712.94;;;9.12;77.95
62152;BME280;48139;47.474;19.034;2024-01-25T05:48:22;100691.31;;;9.09;79.82
62152;BME280;48139;47.474;19.034;2024-01-25T05:51:25;100694.09;;;9.04;80.10
62152;BME280;48139;47.474;19.034;2024-01-25T05:54:28;100693.41;;;8.99;81.11
62152;BME280;48139;47.474;19.034;2024-01-25T05:57:31;100703.69;;;9.04;80.28
62152;BME280;48139;47.474;19.034;2024-01-25T06:00:34;100701.78;;;9.07;80.34
62152;BME280;48139;47.474;19.034;2024-01-25T06:03:37;100695.06;;;9.00;81.21
62152;BME280;48139;47.474;19.034;2024-01-25T06:06:40;100698.63;;;8.99;81.56
62152;BME280;48139;47.474;19.034;2024-01-25T06:09:43;100714.59;;;8.90;82.91
62152;BME280;48139;47.474;19.034;2024-01-25T06:12:46;100690.34;;;8.86;83.67
62152;BME280;48139;47.474;19.034;2024-01-25T06:15:49;100683.34;;;8.87;83.77
62152;BME280;48139;47.474;19.034;2024-01-25T06:18:52;100713.78;;;8.88;83.30
62152;BME280;48139;47.474;19.034;2024-01-25T06:21:55;100718.13;;;8.89;83.20
62152;BME280;48139;47.474;19.034;2024-01-25T06:24:58;100705.94;;;8.63;84.47
62152;BME280;48139;47.474;19.034;2024-01-25T06:28:01;100728.47;;;8.67;85.41
62152;BME280;48139;47.474;19.034;2024-01-25T06:31:04;100736.28;;;8.67;85.33
62152;BME280;48139;47.474;19.034;2024-01-25T06:34:07;100725.19;;;8.61;85.90
62152;BME280;48139;47.474;19.034;2024-01-25T06:37:10;100709.62;;;8.58;86.77
62152;BME280;48139;47.474;19.034;2024-01-25T06:40:16;100728.25;;;8.47;88.04
62152;BME280;48139;47.474;19.034;2024-01-25T06:43:19;100724.81;;;8.45;88.10
62152;BME280;48139;47.474;19.034;2024-01-25T06:46:22;100727.44;;;8.45;87.40
62152;BME280;48139;47.474;19.034;2024-01-25T06:49:25;100736.09;;;8.47;86.59
62152;BME280;48139;47.474;19.034;2024-01-25T06:52:28;100740.34;;;8.49;86.04
62152;BME280;48139;47.474;19.034;2024-01-25T06:55:32;100770.62;;;8.55;84.16
62152;BME280;48139;47.474;19.034;2024-01-25T06:58:34;100758.53;;;8.53;83.38
62152;BME280;48139;47.474;19.034;2024-01-25T07:01:38;100762.72;;;8.57;82.00
62152;BME280;48139;47.474;19.034;2024-01-25T07:04:41;100766.19;;;8.57;82.18
62152;BME280;48139;47.474;19.034;2024-01-25T07:07:47;100762.34;;;8.69;79.55
62152;BME280;48139;47.474;19.034;2024-01-25T07:10:51;100749.28;;;8.69;79.54
62152;BME280;48139;47.474;19.034;2024-01-25T07:13:55;100729.97;;;8.74;78.38
62152;BME280;48139;47.474;19.034;2024-01-25T07:16:58;100726.50;;;8.74;79.30
62152;BME280;48139;47.474;19.034;2024-01-25T07:20:00;100697.69;;;8.75;77.58
62152;BME280;48139;47.474;19.034;2024-01-25T07:23:03;100699.41;;;8.76;77.39
62152;BME280;48139;47.474;19.034;2024-01-25T07:26:06;100683.50;;;8.82;76.21
62152;BME280;48139;47.474;19.034;2024-01-25T07:29:09;100701.50;;;8.92;75.19
62152;BME280;48139;47.474;19.034;2024-01-25T07:32:12;100678.13;;;8.87;75.33
62152;BME280;48139;47.474;19.034;2024-01-25T07:35:15;100687.66;;;8.88;74.42
62152;BME280;48139;47.474;19.034;2024-01-25T07:38:18;100681.47;;;8.92;73.50
62152;BME280;48139;47.474;19.034;2024-01-25T07:41:21;100680.56;;;8.93;73.14
62152;BME280;48139;47.474;19.034;2024-01-25T07:44:23;100683.09;;;8.95;72.89
62152;BME280;48139;47.474;19.034;2024-01-25T07:47:27;100677.00;;;8.94;72.79
62152;BME280;48139;47.474;19.034;2024-01-25T07:50:29;100708.78;;;9.07;71.13
62152;BME280;48139;47.474;19.034;2024-01-25T07:53:32;100720.69;;;9.15;70.76
62152;BME280;48139;47.474;19.034;2024-01-25T07:56:35;100738.13;;;9.15;68.73
62152;BME280;48139;47.474;19.034;2024-01-25T07:59:38;100731.66;;;9.25;66.99
62152;BME280;48139;47.474;19.034;2024-01-25T08:02:40;100751.19;;;9.40;64.21
62152;BME280;48139;47.474;19.034;2024-01-25T08:05:45;100740.50;;;9.46;62.88
62152;BME280;48139;47.474;19.034;2024-01-25T08:08:52;100751.75;;;9.48;62.51
62152;BME280;48139;47.474;19.034;2024-01-25T08:11:55;100746.13;;;9.58;60.76
62152;BME280;48139;47.474;19.034;2024-01-25T08:14:58;100750.50;;;9.58;59.29
62152;BME280;48139;47.474;19.034;2024-01-25T08:18:03;100753.75;;;9.64;57.90
62152;BME280;48139;47.474;19.034;2024-01-25T08:21:07;100750.81;;;9.74;58.60
62152;BME280;48139;47.474;19.034;2024-01-25T08:24:15;100756.66;;;9.80;59.22
62152;BME280;48139;47.474;19.034;2024-01-25T08:27:21;100738.22;;;9.83;59.63
62152;BME280;48139;47.474;19.034;2024-01-25T08:30:23;100751.81;;;9.93;60.24
62152;BME280;48139;47.474;19.034;2024-01-25T08:33:26;100749.88;;;9.98;60.06
62152;BME280;48139;47.474;19.034;2024-01-25T08:36:29;100743.88;;;9.94;60.91
62152;BME280;48139;47.474;19.034;2024-01-25T08:39:31;100744.22;;;10.08;61.85
62152;BME280;48139;47.474;19.034;2024-01-25T08:42:34;100757.66;;;10.23;59.12
62152;BME280;48139;47.474;19.034;2024-01-25T08:45:37;100756.13;;;10.39;59.27
62152;BME280;48139;47.474;19.034;2024-01-25T08:48:41;100748.03;;;10.87;58.45
62152;BME280;48139;47.474;19.034;2024-01-25T08:51:43;100728.78;;;12.41;54.36
62152;BME280;48139;47.474;19.034;2024-01-25T08:54:46;100748.41;;;13.04;51.33
62152;BME280;48139;47.474;19.034;2024-01-25T08:57:49;100758.06;;;12.15;53.28
62152;BME280;48139;47.474;19.034;2024-01-25T09:00:52;100778.25;;;10.96;56.64
62152;BME280;48139;47.474;19.034;2024-01-25T09:03:56;100753.75;;;10.33;58.54
62152;BME280;48139;47.474;19.034;2024-01-25T09:07:03;100771.00;;;10.17;60.54
62152;BME280;48139;47.474;19.034;2024-01-25T09:10:07;100778.47;;;10.02;60.21
62152;BME280;48139;47.474;19.034;2024-01-25T09:13:10;100779.53;;;9.98;60.86
62152;BME280;48139;47.474;19.034;2024-01-25T09:16:13;100783.75;;;10.01;60.13
62152;BME280;48139;47.474;19.034;2024-01-25T09:19:17;100790.72;;;10.02;60.99
62152;BME280;48139;47.474;19.034;2024-01-25T09:22:19;100809.09;;;10.00;61.23
62152;BME280;48139;47.474;19.034;2024-01-25T09:25:22;100808.84;;;10.06;61.16
62152;BME280;48139;47.474;19.034;2024-01-25T09:28:26;100805.47;;;10.04;60.59
62152;BME280;48139;47.474;19.034;2024-01-25T09:31:28;100818.38;;;10.32;59.24
62152;BME280;48139;47.474;19.034;2024-01-25T09:34:31;100824.16;;;10.40;59.29
62152;BME280;48139;47.474;19.034;2024-01-25T09:37:36;100841.66;;;10.40;60.01
62152;BME280;48139;47.474;19.034;2024-01-25T09:40:39;100829.31;;;10.20;59.53
62152;BME280;48139;47.474;19.034;2024-01-25T09:43:42;100819.59;;;10.24;59.93
62152;BME280;48139;47.474;19.034;2024-01-25T09:46:45;100816.03;;;10.25;61.06
62152;BME280;48139;47.474;19.034;2024-01-25T09:49:49;100832.25;;;10.34;60.06
62152;BME280;48139;47.474;19.034;2024-01-25T09:52:54;100853.94;;;10.38;58.80
62152;BME280;48139;47.474;19.034;2024-01-25T09:56:06;100834.06;;;10.32;58.66
62152;BME280;48139;47.474;19.034;2024-01-25T09:59:09;100831.06;;;10.43;58.21
62152;BME280;48139;47.474;19.034;2024-01-25T10:02:12;100839.03;;;10.40;58.43
62152;BME280;48139;47.474;19.034;2024-01-25T10:05:18;100848.13;;;10.53;58.76
62152;BME280;48139;47.474;19.034;2024-01-25T10:08:21;100827.41;;;10.47;57.48
62152;BME280;48139;47.474;19.034;2024-01-25T10:11:26;100814.13;;;10.51;58.18
62152;BME280;48139;47.474;19.034;2024-01-25T10:14:32;100845.78;;;10.45;58.63
62152;BME280;48139;47.474;19.034;2024-01-25T10:17:35;100827.41;;;10.47;58.05
62152;BME280;48139;47.474;19.034;2024-01-25T10:20:57;100846.03;;;10.39;59.51
62152;BME280;48139;47.474;19.034;2024-01-25T10:24:05;100821.19;;;10.49;58.37
62152;BME280;48139;47.474;19.034;2024-01-25T10:27:09;100820.22;;;10.52;59.04
62152;BME280;48139;47.474;19.034;2024-01-25T10:30:12;100851.59;;;10.54;59.03
62152;BME280;48139;47.474;19.034;2024-01-25T10:33:16;100810.94;;;10.43;58.68
62152;BME280;48139;47.474;19.034;2024-01-25T10:36:20;100821.59;;;10.39;58.72
62152;BME280;48139;47.474;19.034;2024-01-25T10:39:24;100803.28;;;10.39;58.42
62152;BME280;48139;47.474;19.034;2024-01-25T10:42:27;100811.50;;;10.51;59.37
62152;BME280;48139;47.474;19.034;2024-01-25T10:45:30;100800.06;;;10.54;58.17
62152;BME280;48139;47.474;19.034;2024-01-25T10:48:32;100790.97;;;10.63;59.05
62152;BME280;48139;47.474;19.034;2024-01-25T10:51:36;100787.69;;;10.58;58.46
62152;BME280;48139;47.474;19.034;2024-01-25T10:54:38;100790.44;;;10.55;58.11
62152;BME280;48139;47.474;19.034;2024-01-25T10:57:43;100803.53;;;10.55;57.97
62152;BME280;48139;47.474;19.034;2024-01-25T11:00:55;100808.66;;;10.36;57.88
62152;BME280;48139;47.474;19.034;2024-01-25T11:04:01;100790.19;;;10.39;57.39
62152;BME280;48139;47.474;19.034;2024-01-25T11:07:06;100806.03;;;10.36;57.60
62152;BME280;48139;47.474;19.034;2024-01-25T11:10:22;100809.84;;;10.27;56.71
62152;BME280;48139;47.474;19.034;2024-01-25T11:13:26;100811.88;;;10.42;57.99
62152;BME280;48139;47.474;19.034;2024-01-25T11:16:31;100812.91;;;10.60;56.09
62152;BME280;48139;47.474;19.034;2024-01-25T11:19:38;100809.87;;;10.49;56.02
62152;BME280;48139;47.474;19.034;2024-01-25T11:22:44;100797.03;;;10.43;55.91
62152;BME280;48139;47.474;19.034;2024-01-25T11:25:47;100790.22;;;10.37;55.65
62152;BME280;48139;47.474;19.034;2024-01-25T11:28:51;100790.78;;;10.45;55.81
62152;BME280;48139;47.474;19.034;2024-01-25T11:31:53;100791.81;;;10.63;55.76
62152;BME280;48139;47.474;19.034;2024-01-25T11:35:01;100810.03;;;10.66;55.54
62152;BME280;48139;47.474;19.034;2024-01-25T11:38:04;100769.16;;;10.62;55.68
62152;BME280;48139;47.474;19.034;2024-01-25T11:41:07;100785.31;;;10.51;56.21
62152;BME280;48139;47.474;19.034;2024-01-25T11:44:11;100750.13;;;10.37;56.08
62152;BME280;48139;47.474;19.034;2024-01-25T11:47:14;100767.00;;;10.30;56.99
62152;BME280;48139;47.474;19.034;2024-01-25T11:50:16;100770.38;;;10.32;56.84
62152;BME280;48139;47.474;19.034;2024-01-25T11:53:20;100775.69;;;10.30;56.35
62152;BME280;48139;47.474;19.034;2024-01-25T11:56:36;100775.69;;;10.30;57.08
62152;BME280;48139;47.474;19.034;2024-01-25T11:59:42;100768.56;;;10.34;56.65
62152;BME280;48139;47.474;19.034;2024-01-25T12:02:47;100782.97;;;10.44;57.02
62152;BME280;48139;47.474;19.034;2024-01-25T12:05:50;100781.59;;;10.35;55.15
62152;BME280;48139;47.474;19.034;2024-01-25T12:08:54;100789.63;;;10.31;55.56
62152;BME280;48139;47.474;19.034;2024-01-25T12:11:57;100811.94;;;10.41;55.11
62152;BME280;48139;47.474;19.034;2024-01-25T12:15:00;100803.09;;;10.43;54.53
62152;BME280;48139;47.474;19.034;2024-01-25T12:18:07;100806.97;;;10.33;54.50
62152;BME280;48139;47.474;19.034;2024-01-25T12:21:10;100834.88;;;10.34;54.82
62152;BME280;48139;47.474;19.034;2024-01-25T12:24:13;100827.47;;;10.45;53.81
62152;BME280;48139;47.474;19.034;2024-01-25T12:27:16;100815.03;;;10.50;53.66
62152;BME280;48139;47.474;19.034;2024-01-25T12:30:19;100818.09;;;10.62;53.83
62152;BME280;48139;47.474;19.034;2024-01-25T12:33:21;100827.41;;;10.69;53.48
62152;BME280;48139;47.474;19.034;2024-01-25T12:36:29;100829.91;;;10.72;52.67
62152;BME280;48139;47.474;19.034;2024-01-25T12:39:31;100804.88;;;10.65;53.12
62152;BME280;48139;47.474;19.034;2024-01-25T12:42:35;100816.63;;;10.55;53.08
62152;BME280;48139;47.474;19.034;2024-01-25T12:45:38;100793.72;;;10.60;53.42
62152;BME280;48139;47.474;19.034;2024-01-25T12:48:41;100831.34;;;10.57;52.52
62152;BME280;48139;47.474;19.034;2024-01-25T12:51:45;100830.06;;;10.45;53.28
62152;BME280;48139;47.474;19.034;2024-01-25T12:54:50;100788.56;;;10.36;53.32
62152;BME280;48139;47.474;19.034;2024-01-25T12:57:53;100782.28;;;10.40;52.56
62152;BME280;48139;47.474;19.034;2024-01-25T13:00:57;100769.47;;;10.33;52.56
62152;BME280;48139;47.474;19.034;2024-01-25T13:04:00;100782.31;;;10.39;52.88
62152;BME280;48139;47.474;19.034;2024-01-25T13:07:03;100801.28;;;10.45;53.02
62152;BME280;48139;47.474;19.034;2024-01-25T13:10:07;100792.03;;;10.37;53.29
62152;BME280;48139;47.474;19.034;2024-01-25T13:13:09;100816.25;;;10.42;53.15
62152;BME280;48139;47.474;19.034;2024-01-25T13:16:12;100785.31;;;10.30;53.00
62152;BME280;48139;47.474;19.034;2024-01-25T13:19:15;100794.94;;;10.29;53.79
62152;BME280;48139;47.474;19.034;2024-01-25T13:22:17;100768.28;;;10.18;53.82
62152;BME280;48139;47.474;19.034;2024-01-25T13:25:23;100757.72;;;10.21;54.82
62152;BME280;48139;47.474;19.034;2024-01-25T13:28:26;100782.94;;;10.24;54.61
62152;BME280;48139;47.474;19.034;2024-01-25T13:31:29;100764.88;;;10.16;54.25
62152;BME280;48139;47.474;19.034;2024-01-25T13:34:32;100772.47;;;10.24;54.67
62152;BME280;48139;47.474;19.034;2024-01-25T13:37:35;100771.06;;;10.13;54.75
62152;BME280;48139;47.474;19.034;2024-01-25T13:40:38;100770.53;;;10.05;54.52
62152;BME280;48139;47.474;19.034;2024-01-25T13:43:41;100768.59;;;10.10;55.02
62152;BME280;48139;47.474;19.034;2024-01-25T13:46:43;100785.16;;;10.11;55.46
62152;BME280;48139;47.474;19.034;2024-01-25T13:49:46;100775.69;;;10.07;54.88
62152;BME280;48139;47.474;19.034;2024-01-25T13:52:49;100759.94;;;10.08;54.83
62152;BME280;48139;47.474;19.034;2024-01-25T13:55:52;100774.97;;;10.03;55.03
62152;BME280;48139;47.474;19.034;2024-01-25T13:58:55;100758.28;;;10.06;54.96
62152;BME280;48139;47.474;19.034;2024-01-25T14:01:58;100783.19;;;10.18;54.76
62152;BME280;48139;47.474;19.034;2024-01-25T14:05:00;100764.88;;;10.16;54.72
62152;BME280;48139;47.474;19.034;2024-01-25T14:08:04;100773.81;;;10.10;55.06
62152;BME280;48139;47.474;19.034;2024-01-25T14:11:07;100805.28;;;10.09;55.35
62152;BME280;48139;47.474;19.034;2024-01-25T14:14:10;100789.22;;;9.95;55.29
62152;BME280;48139;47.474;19.034;2024-01-25T14:17:13;100804.72;;;9.78;55.67
62152;BME280;48139;47.474;19.034;2024-01-25T14:20:16;100793.00;;;9.64;56.20
62152;BME280;48139;47.474;19.034;2024-01-25T14:23:20;100806.69;;;9.71;56.32
62152;BME280;48139;47.474;19.034;2024-01-25T14:26:23;100827.53;;;9.74;55.89
62152;BME280;48139;47.474;19.034;2024-01-25T14:29:26;100806.44;;;9.79;55.73
62152;BME280;48139;47.474;19.034;2024-01-25T14:32:33;100824.59;;;9.82;55.66
62152;BME280;48139;47.474;19.034;2024-01-25T14:35:39;100822.16;;;9.77;55.73
62152;BME280;48139;47.474;19.034;2024-01-25T14:38:42;100839.69;;;9.75;54.99
62152;BME280;48139;47.474;19.034;2024-01-25T14:41:45;100862.78;;;9.62;55.11
62152;BME280;48139;47.474;19.034;2024-01-25T14:44:47;100847.75;;;9.44;56.02
62152;BME280;48139;47.474;19.034;2024-01-25T14:47:50;100864.72;;;9.57;55.70
62152;BME280;48139;47.474;19.034;2024-01-25T14:50:53;100859.72;;;9.51;55.71
62152;BME280;48139;47.474;19.034;2024-01-25T14:53:56;100850.78;;;9.57;55.62
62152;BME280;48139;47.474;19.034;2024-01-25T14:56:58;100881.28;;;9.58;55.90
62152;BME280;48139;47.474;19.034;2024-01-25T15:00:02;100878.63;;;9.59;55.60
62152;BME280;48139;47.474;19.034;2024-01-25T15:03:05;100881.28;;;9.58;55.62
62152;BME280;48139;47.474;19.034;2024-01-25T15:06:13;100882.09;;;9.60;56.35
62152;BME280;48139;47.474;19.034;2024-01-25T15:09:16;100888.31;;;9.56;56.08
62152;BME280;48139;47.474;19.034;2024-01-25T15:12:21;100876.09;;;9.56;56.36
62152;BME280;48139;47.474;19.034;2024-01-25T15:15:24;100875.53;;;9.48;56.44
62152;BME280;48139;47.474;19.034;2024-01-25T15:18:30;100888.66;;;9.47;56.49
62152;BME280;48139;47.474;19.034;2024-01-25T15:21:33;100877.41;;;9.43;56.59
62152;BME280;48139;47.474;19.034;2024-01-25T15:24:38;100869.53;;;9.18;57.38
62152;BME280;48139;47.474;19.034;2024-01-25T15:27:40;100878.25;;;9.19;57.64
62152;BME280;48139;47.474;19.034;2024-01-25T15:30:44;100883.53;;;9.17;58.02
62152;BME280;48139;47.474;19.034;2024-01-25T15:33:46;100881.47;;;9.01;59.21
62152;BME280;48139;47.474;19.034;2024-01-25T15:36:49;100885.50;;;8.83;59.71
62152;BME280;48139;47.474;19.034;2024-01-25T15:39:52;100883.53;;;8.91;59.06
62152;BME280;48139;47.474;19.034;2024-01-25T15:42:58;100888.09;;;8.84;59.93
62152;BME280;48139;47.474;19.034;2024-01-25T15:46:01;100872.44;;;8.83;59.62
62152;BME280;48139;47.474;19.034;2024-01-25T15:49:04;100898.72;;;8.78;60.36
62152;BME280;48139;47.474;19.034;2024-01-25T15:52:07;100890.69;;;8.84;59.87
62152;BME280;48139;47.474;19.034;2024-01-25T15:55:10;100889.84;;;8.84;59.32
62152;BME280;48139;47.474;19.034;2024-01-25T15:58:13;100883.78;;;8.82;59.58
62152;BME280;48139;47.474;19.034;2024-01-25T16:01:15;100879.62;;;8.76;59.75
62152;BME280;48139;47.474;19.034;2024-01-25T16:04:19;100885.81;;;8.74;59.81
62152;BME280;48139;47.474;19.034;2024-01-25T16:07:22;100874.78;;;8.64;60.12
62152;BME280;48139;47.474;19.034;2024-01-25T16:10:28;100881.00;;;8.60;60.59
62152;BME280;48139;47.474;19.034;2024-01-25T16:13:31;100869.78;;;8.57;60.36
62152;BME280;48139;47.474;19.034;2024-01-25T16:16:34;100869.78;;;8.57;60.47
62152;BME280;48139;47.474;19.034;2024-01-25T16:19:36;100869.19;;;8.48;60.88
62152;BME280;48139;47.474;19.034;2024-01-25T16:22:39;100873.38;;;8.54;60.30
62152;BME280;48139;47.474;19.034;2024-01-25T16:25:41;100872.84;;;8.43;61.20
62152;BME280;48139;47.474;19.034;2024-01-25T16:28:45;100870.66;;;8.28;61.92
62152;BME280;48139;47.474;19.034;2024-01-25T16:31:48;100867.22;;;8.26;61.89
62152;BME280;48139;47.474;19.034;2024-01-25T16:34:51;100872.34;;;8.30;61.86
62152;BME280;48139;47.474;19.034;2024-01-25T16:37:57;100871.44;;;8.31;61.48
62152;BME280;48139;47.474;19.034;2024-01-25T16:41:04;100880.94;;;8.34;61.03
62152;BME280;48139;47.474;19.034;2024-01-25T16:44:06;100886.91;;;8.37;61.08
62152;BME280;48139;47.474;19.034;2024-01-25T16:47:13;100892.41;;;8.27;61.21
62152;BME280;48139;47.474;19.034;2024-01-25T16:50:15;100895.13;;;8.24;61.82
62152;BME280;48139;47.474;19.034;2024-01-25T16:53:18;100904.59;;;8.26;62.11
62152;BME280;48139;47.474;19.034;2024-01-25T16:56:21;100893.28;;;8.27;61.64
